sensor_id;sensor_type;location;lat;lon;timestamp;P1;durP1;ratioP1;P2;durP2;ratioP2
3601;SDS011;1815;50.950;6.920;2022-12-22T00:02:38;3.72;;;2.15;;
3601;SDS011;1815;50.950;6.920;2022-12-22T00:05:22;3.65;;;2.72;;
3601;SDS011;1815;50.950;6.920;2022-12-22T00:08:08;2.30;;;1.65;;
3601;SDS011;1815;50.950;6.920;2022-12-22T00:10:53;2.95;;;1.67;;
3601;SDS011;1815;50.950;6.920;2022-12-22T00:13:39;2.55;;;1.65;;
3601;SDS011;1815;50.950;6.920;2022-12-22T00:16:28;2.53;;;1.95;;
3601;SDS011;1815;50.950;6.920;2022-12-22T00:19:17;2.10;;;1.40;;
3601;SDS011;1815;50.950;6.920;2022-12-22T00:22:06;4.13;;;1.95;;
3601;SDS011;1815;50.950;6.920;2022-12-22T00:24:56;1.80;;;1.40;;
3601;SDS011;1815;50.950;6.920;2022-12-22T00:27:41;2.42;;;1.70;;
3601;SDS011;1815;50.950;6.920;2022-12-22T00:30:26;2.38;;;1.70;;
3601;SDS011;1815;50.950;6.920;2022-12-22T00:33:11;2.08;;;1.80;;
3601;SDS011;1815;50.950;6.920;2022-12-22T00:35:57;2.10;;;1.50;;
3601;SDS011;1815;50.950;6.920;2022-12-22T00:38:42;4.05;;;1.52;;
3601;SDS011;1815;50.950;6.920;2022-12-22T00:41:26;2.72;;;1.50;;
3601;SDS011;1815;50.950;6.920;2022-12-22T00:44:10;2.95;;;1.38;;
3601;SDS011;1815;50.950;6.920;2022-12-22T00:46:54;2.60;;;1.60;;
3601;SDS011;1815;50.950;6.920;2022-12-22T00:49:39;2.50;;;1.48;;
3601;SDS011;1815;50.950;6.920;2022-12-22T00:52:26;2.60;;;1.30;;
3601;SDS011;1815;50.950;6.920;2022-12-22T00:55:12;2.90;;;1.42;;
3601;SDS011;1815;50.950;6.920;2022-12-22T00:57:57;3.03;;;1.10;;
3601;SDS011;1815;50.950;6.920;2022-12-22T01:00:42;1.92;;;1.13;;
3601;SDS011;1815;50.950;6.920;2022-12-22T01:03:27;2.27;;;1.20;;
3601;SDS011;1815;50.950;6.920;2022-12-22T01:06:11;2.22;;;1.23;;
3601;SDS011;1815;50.950;6.920;2022-12-22T01:08:55;1.70;;;1.00;;
3601;SDS011;1815;50.950;6.920;2022-12-22T01:11:39;1.83;;;1.00;;
3601;SDS011;1815;50.950;6.920;2022-12-22T01:14:24;1.58;;;0.98;;
3601;SDS011;1815;50.950;6.920;2022-12-22T01:17:08;1.83;;;1.00;;
3601;SDS011;1815;50.950;6.920;2022-12-22T01:19:53;2.20;;;1.00;;
3601;SDS011;1815;50.950;6.920;2022-12-22T01:22:38;1.53;;;1.00;;
3601;SDS011;1815;50.950;6.920;2022-12-22T01:25:22;2.63;;;1.10;;
3601;SDS011;1815;50.950;6.920;2022-12-22T01:28:15;2.67;;;1.48;;
3601;SDS011;1815;50.950;6.920;2022-12-22T01:34:14;2.33;;;1.40;;
3601;SDS011;1815;50.950;6.920;2022-12-22T01:36:58;1.92;;;1.20;;
3601;SDS011;1815;50.950;6.920;2022-12-22T01:39:43;2.13;;;1.00;;
3601;SDS011;1815;50.950;6.920;2022-12-22T01:42:28;1.70;;;1.10;;
3601;SDS011;1815;50.950;6.920;2022-12-22T01:48:02;1.50;;;0.82;;
3601;SDS011;1815;50.950;6.920;2022-12-22T01:50:46;2.10;;;1.30;;
3601;SDS011;1815;50.950;6.920;2022-12-22T01:53:30;1.88;;;1.17;;
3601;SDS011;1815;50.950;6.920;2022-12-22T01:56:15;2.50;;;1.10;;
3601;SDS011;1815;50.950;6.920;2022-12-22T01:59:00;2.60;;;0.93;;
3601;SDS011;1815;50.950;6.920;2022-12-22T02:01:46;1.83;;;1.00;;
3601;SDS011;1815;50.950;6.920;2022-12-22T02:04:37;2.20;;;0.98;;
3601;SDS011;1815;50.950;6.920;2022-12-22T02:11:02;1.50;;;0.80;;
3601;SDS011;1815;50.950;6.920;2022-12-22T02:14:20;1.50;;;0.82;;
3601;SDS011;1815;50.950;6.920;2022-12-22T02:26:53;2.10;;;0.70;;
3601;SDS011;1815;50.950;6.920;2022-12-22T02:29:42;1.50;;;0.80;;
3601;SDS011;1815;50.950;6.920;2022-12-22T02:32:34;1.80;;;0.90;;
3601;SDS011;1815;50.950;6.920;2022-12-22T02:35:21;2.30;;;0.88;;
3601;SDS011;1815;50.950;6.920;2022-12-22T02:48:02;1.60;;;0.80;;
3601;SDS011;1815;50.950;6.920;2022-12-22T02:50:51;1.77;;;1.00;;
3601;SDS011;1815;50.950;6.920;2022-12-22T02:53:44;1.83;;;0.88;;
3601;SDS011;1815;50.950;6.920;2022-12-22T02:56:29;1.37;;;0.80;;
3601;SDS011;1815;50.950;6.920;2022-12-22T02:59:14;2.20;;;0.77;;
3601;SDS011;1815;50.950;6.920;2022-12-22T03:01:58;1.42;;;0.80;;
3601;SDS011;1815;50.950;6.920;2022-12-22T03:04:42;1.63;;;0.98;;
3601;SDS011;1815;50.950;6.920;2022-12-22T03:07:26;1.70;;;0.80;;
3601;SDS011;1815;50.950;6.920;2022-12-22T03:10:11;1.75;;;0.70;;
3601;SDS011;1815;50.950;6.920;2022-12-22T03:12:58;1.25;;;0.70;;
3601;SDS011;1815;50.950;6.920;2022-12-22T03:15:43;1.55;;;0.80;;
3601;SDS011;1815;50.950;6.920;2022-12-22T03:18:27;1.63;;;0.88;;
3601;SDS011;1815;50.950;6.920;2022-12-22T03:21:11;1.60;;;0.70;;
3601;SDS011;1815;50.950;6.920;2022-12-22T03:23:55;1.40;;;0.70;;
3601;SDS011;1815;50.950;6.920;2022-12-22T03:26:40;1.30;;;0.70;;
3601;SDS011;1815;50.950;6.920;2022-12-22T03:29:05;1.30;;;0.73;;
3601;SDS011;1815;50.950;6.920;2022-12-22T03:31:31;1.20;;;0.80;;
3601;SDS011;1815;50.950;6.920;2022-12-22T03:33:57;2.00;;;0.70;;
3601;SDS011;1815;50.950;6.920;2022-12-22T03:36:22;2.07;;;0.80;;
3601;SDS011;1815;50.950;6.920;2022-12-22T03:38:48;1.10;;;0.50;;
3601;SDS011;1815;50.950;6.920;2022-12-22T03:41:14;2.50;;;1.00;;
3601;SDS011;1815;50.950;6.920;2022-12-22T03:43:58;3.53;;;0.70;;
3601;SDS011;1815;50.950;6.920;2022-12-22T03:46:42;1.58;;;0.60;;
3601;SDS011;1815;50.950;6.920;2022-12-22T03:49:08;1.10;;;0.60;;
3601;SDS011;1815;50.950;6.920;2022-12-22T03:51:38;2.37;;;0.90;;
3601;SDS011;1815;50.950;6.920;2022-12-22T03:54:09;2.80;;;0.70;;
3601;SDS011;1815;50.950;6.920;2022-12-22T03:56:35;1.20;;;0.60;;
3601;SDS011;1815;50.950;6.920;2022-12-22T03:59:02;1.30;;;0.70;;
3601;SDS011;1815;50.950;6.920;2022-12-22T04:01:28;1.30;;;0.73;;
3601;SDS011;1815;50.950;6.920;2022-12-22T04:03:54;1.75;;;0.70;;
3601;SDS011;1815;50.950;6.920;2022-12-22T04:06:20;1.50;;;0.70;;
3601;SDS011;1815;50.950;6.920;2022-12-22T04:08:45;1.20;;;0.60;;
3601;SDS011;1815;50.950;6.920;2022-12-22T04:11:12;1.40;;;0.80;;
3601;SDS011;1815;50.950;6.920;2022-12-22T04:13:57;1.20;;;0.60;;
3601;SDS011;1815;50.950;6.920;2022-12-22T04:16:23;1.20;;;0.60;;
3601;SDS011;1815;50.950;6.920;2022-12-22T04:18:49;1.38;;;0.80;;
3601;SDS011;1815;50.950;6.920;2022-12-22T04:21:15;1.73;;;0.90;;
3601;SDS011;1815;50.950;6.920;2022-12-22T04:23:41;1.63;;;0.70;;
3601;SDS011;1815;50.950;6.920;2022-12-22T04:26:07;1.87;;;0.90;;
3601;SDS011;1815;50.950;6.920;2022-12-22T04:28:33;1.40;;;0.85;;
3601;SDS011;1815;50.950;6.920;2022-12-22T04:30:59;1.60;;;0.90;;
3601;SDS011;1815;50.950;6.920;2022-12-22T04:33:24;2.17;;;0.83;;
3601;SDS011;1815;50.950;6.920;2022-12-22T04:35:50;1.87;;;0.80;;
3601;SDS011;1815;50.950;6.920;2022-12-22T04:38:16;2.60;;;0.77;;
3601;SDS011;1815;50.950;6.920;2022-12-22T04:40:42;1.37;;;0.90;;
3601;SDS011;1815;50.950;6.920;2022-12-22T04:43:07;1.50;;;0.90;;
3601;SDS011;1815;50.950;6.920;2022-12-22T04:45:33;1.30;;;0.60;;
3601;SDS011;1815;50.950;6.920;2022-12-22T04:47:59;1.40;;;0.60;;
3601;SDS011;1815;50.950;6.920;2022-12-22T04:50:25;2.17;;;0.60;;
3601;SDS011;1815;50.950;6.920;2022-12-22T04:52:50;2.17;;;0.50;;
3601;SDS011;1815;50.950;6.920;2022-12-22T04:55:16;2.80;;;0.60;;
3601;SDS011;1815;50.950;6.920;2022-12-22T04:57:42;1.60;;;0.53;;
3601;SDS011;1815;50.950;6.920;2022-12-22T05:00:07;4.90;;;0.50;;
3601;SDS011;1815;50.950;6.920;2022-12-22T05:02:34;1.20;;;0.50;;
3601;SDS011;1815;50.950;6.920;2022-12-22T05:05:00;1.43;;;0.87;;
3601;SDS011;1815;50.950;6.920;2022-12-22T05:07:26;1.30;;;0.60;;
3601;SDS011;1815;50.950;6.920;2022-12-22T05:09:52;5.73;;;0.60;;
3601;SDS011;1815;50.950;6.920;2022-12-22T05:12:17;1.30;;;0.50;;
3601;SDS011;1815;50.950;6.920;2022-12-22T05:15:02;1.40;;;0.50;;
3601;SDS011;1815;50.950;6.920;2022-12-22T05:17:28;2.00;;;0.60;;
3601;SDS011;1815;50.950;6.920;2022-12-22T05:19:53;1.60;;;0.60;;
3601;SDS011;1815;50.950;6.920;2022-12-22T05:22:19;1.30;;;0.63;;
3601;SDS011;1815;50.950;6.920;2022-12-22T05:24:45;1.40;;;0.60;;
3601;SDS011;1815;50.950;6.920;2022-12-22T05:27:10;1.30;;;0.60;;
3601;SDS011;1815;50.950;6.920;2022-12-22T05:29:37;1.27;;;0.60;;
3601;SDS011;1815;50.950;6.920;2022-12-22T05:32:02;1.20;;;0.60;;
3601;SDS011;1815;50.950;6.920;2022-12-22T05:34:28;1.40;;;0.60;;
3601;SDS011;1815;50.950;6.920;2022-12-22T05:36:54;2.67;;;0.80;;
3601;SDS011;1815;50.950;6.920;2022-12-22T05:39:20;1.70;;;0.70;;
3601;SDS011;1815;50.950;6.920;2022-12-22T05:41:45;2.77;;;0.70;;
3601;SDS011;1815;50.950;6.920;2022-12-22T05:44:11;2.00;;;1.00;;
3601;SDS011;1815;50.950;6.920;2022-12-22T05:46:36;2.13;;;0.80;;
3601;SDS011;1815;50.950;6.920;2022-12-22T05:49:02;1.70;;;1.00;;
3601;SDS011;1815;50.950;6.920;2022-12-22T05:51:28;2.17;;;0.80;;
3601;SDS011;1815;50.950;6.920;2022-12-22T05:53:53;3.00;;;1.50;;
3601;SDS011;1815;50.950;6.920;2022-12-22T05:56:19;1.70;;;0.80;;
3601;SDS011;1815;50.950;6.920;2022-12-22T05:58:45;2.13;;;0.90;;
3601;SDS011;1815;50.950;6.920;2022-12-22T06:01:10;2.47;;;1.20;;
3601;SDS011;1815;50.950;6.920;2022-12-22T06:03:36;2.00;;;1.10;;
3601;SDS011;1815;50.950;6.920;2022-12-22T06:06:02;1.40;;;1.10;;
3601;SDS011;1815;50.950;6.920;2022-12-22T06:08:28;2.60;;;1.03;;
3601;SDS011;1815;50.950;6.920;2022-12-22T06:10:54;1.80;;;1.10;;
3601;SDS011;1815;50.950;6.920;2022-12-22T06:13:23;2.53;;;1.20;;
3601;SDS011;1815;50.950;6.920;2022-12-22T06:15:50;1.70;;;1.00;;
3601;SDS011;1815;50.950;6.920;2022-12-22T06:18:15;1.90;;;1.30;;
3601;SDS011;1815;50.950;6.920;2022-12-22T06:20:41;2.87;;;1.10;;
3601;SDS011;1815;50.950;6.920;2022-12-22T06:23:07;2.13;;;1.50;;
3601;SDS011;1815;50.950;6.920;2022-12-22T06:25:32;1.60;;;1.10;;
3601;SDS011;1815;50.950;6.920;2022-12-22T06:27:58;1.90;;;1.30;;
3601;SDS011;1815;50.950;6.920;2022-12-22T06:30:24;3.50;;;1.60;;
3601;SDS011;1815;50.950;6.920;2022-12-22T06:32:50;2.03;;;1.40;;
3601;SDS011;1815;50.950;6.920;2022-12-22T06:35:15;2.10;;;1.30;;
3601;SDS011;1815;50.950;6.920;2022-12-22T06:37:41;2.80;;;1.33;;
3601;SDS011;1815;50.950;6.920;2022-12-22T06:40:07;2.30;;;1.50;;
3601;SDS011;1815;50.950;6.920;2022-12-22T06:42:33;2.80;;;1.90;;
3601;SDS011;1815;50.950;6.920;2022-12-22T06:45:17;2.50;;;1.90;;
3601;SDS011;1815;50.950;6.920;2022-12-22T06:47:43;2.50;;;2.27;;
3601;SDS011;1815;50.950;6.920;2022-12-22T06:50:09;2.33;;;2.13;;
3601;SDS011;1815;50.950;6.920;2022-12-22T06:52:35;2.63;;;2.40;;
3601;SDS011;1815;50.950;6.920;2022-12-22T06:55:01;2.03;;;1.83;;
3601;SDS011;1815;50.950;6.920;2022-12-22T06:57:27;2.83;;;2.63;;
3601;SDS011;1815;50.950;6.920;2022-12-22T06:59:53;4.03;;;2.65;;
3601;SDS011;1815;50.950;6.920;2022-12-22T07:02:19;3.53;;;3.30;;
3601;SDS011;1815;50.950;6.920;2022-12-22T07:04:44;3.20;;;2.90;;
3601;SDS011;1815;50.950;6.920;2022-12-22T07:07:10;3.50;;;2.77;;
3601;SDS011;1815;50.950;6.920;2022-12-22T07:09:36;3.45;;;3.15;;
3601;SDS011;1815;50.950;6.920;2022-12-22T07:12:02;3.73;;;2.80;;
3601;SDS011;1815;50.950;6.920;2022-12-22T07:14:28;2.90;;;2.65;;
3601;SDS011;1815;50.950;6.920;2022-12-22T07:16:54;3.90;;;3.27;;
3601;SDS011;1815;50.950;6.920;2022-12-22T07:19:19;3.80;;;3.40;;
3601;SDS011;1815;50.950;6.920;2022-12-22T07:21:45;5.20;;;4.80;;
3601;SDS011;1815;50.950;6.920;2022-12-22T07:24:13;4.30;;;3.90;;
3601;SDS011;1815;50.950;6.920;2022-12-22T07:26:40;3.83;;;3.45;;
3601;SDS011;1815;50.950;6.920;2022-12-22T07:29:06;5.03;;;3.93;;
3601;SDS011;1815;50.950;6.920;2022-12-22T07:31:31;4.33;;;3.93;;
3601;SDS011;1815;50.950;6.920;2022-12-22T07:33:57;4.57;;;4.17;;
3601;SDS011;1815;50.950;6.920;2022-12-22T07:36:23;5.17;;;3.60;;
3601;SDS011;1815;50.950;6.920;2022-12-22T07:38:49;4.07;;;3.67;;
3601;SDS011;1815;50.950;6.920;2022-12-22T07:41:16;4.30;;;3.90;;
3601;SDS011;1815;50.950;6.920;2022-12-22T07:44:04;5.38;;;4.15;;
3601;SDS011;1815;50.950;6.920;2022-12-22T07:46:32;5.00;;;4.18;;
3601;SDS011;1815;50.950;6.920;2022-12-22T07:49:00;4.75;;;3.90;;
3601;SDS011;1815;50.950;6.920;2022-12-22T07:51:46;5.70;;;4.75;;
3601;SDS011;1815;50.950;6.920;2022-12-22T07:54:13;4.77;;;4.07;;
3601;SDS011;1815;50.950;6.920;2022-12-22T07:56:40;8.05;;;5.55;;
3601;SDS011;1815;50.950;6.920;2022-12-22T07:59:06;8.23;;;4.57;;
3601;SDS011;1815;50.950;6.920;2022-12-22T08:01:32;6.25;;;4.20;;
3601;SDS011;1815;50.950;6.920;2022-12-22T08:03:58;5.70;;;5.10;;
3601;SDS011;1815;50.950;6.920;2022-12-22T08:06:24;5.00;;;4.40;;
3601;SDS011;1815;50.950;6.920;2022-12-22T08:08:50;5.70;;;5.05;;
3601;SDS011;1815;50.950;6.920;2022-12-22T08:11:16;4.93;;;4.30;;
3601;SDS011;1815;50.950;6.920;2022-12-22T08:13:42;5.65;;;4.40;;
3601;SDS011;1815;50.950;6.920;2022-12-22T08:16:09;6.30;;;4.03;;
3601;SDS011;1815;50.950;6.920;2022-12-22T08:18:36;5.82;;;4.72;;
3601;SDS011;1815;50.950;6.920;2022-12-22T08:21:03;5.32;;;4.20;;
3601;SDS011;1815;50.950;6.920;2022-12-22T08:23:29;5.40;;;4.30;;
3601;SDS011;1815;50.950;6.920;2022-12-22T08:26:30;5.45;;;4.95;;
3601;SDS011;1815;50.950;6.920;2022-12-22T08:28:59;6.60;;;4.97;;
3601;SDS011;1815;50.950;6.920;2022-12-22T08:31:29;6.03;;;4.78;;
3601;SDS011;1815;50.950;6.920;2022-12-22T08:33:57;4.78;;;4.30;;
3601;SDS011;1815;50.950;6.920;2022-12-22T08:36:26;5.95;;;5.05;;
3601;SDS011;1815;50.950;6.920;2022-12-22T08:38:53;8.00;;;5.80;;
3601;SDS011;1815;50.950;6.920;2022-12-22T08:45:07;7.13;;;6.13;;
3601;SDS011;1815;50.950;6.920;2022-12-22T08:47:35;6.13;;;4.97;;
3601;SDS011;1815;50.950;6.920;2022-12-22T08:50:01;6.13;;;5.53;;
3601;SDS011;1815;50.950;6.920;2022-12-22T08:52:27;7.73;;;6.90;;
3601;SDS011;1815;50.950;6.920;2022-12-22T08:54:52;5.83;;;5.23;;
3601;SDS011;1815;50.950;6.920;2022-12-22T08:57:18;7.37;;;6.63;;
3601;SDS011;1815;50.950;6.920;2022-12-22T08:59:44;6.83;;;6.13;;
3601;SDS011;1815;50.950;6.920;2022-12-22T09:02:12;7.70;;;5.93;;
3601;SDS011;1815;50.950;6.920;2022-12-22T09:04:38;7.70;;;6.87;;
3601;SDS011;1815;50.950;6.920;2022-12-22T09:07:03;6.30;;;5.70;;
3601;SDS011;1815;50.950;6.920;2022-12-22T09:09:30;8.98;;;8.07;;
3601;SDS011;1815;50.950;6.920;2022-12-22T09:11:57;8.17;;;7.37;;
3601;SDS011;1815;50.950;6.920;2022-12-22T09:14:23;8.20;;;7.17;;
3601;SDS011;1815;50.950;6.920;2022-12-22T09:16:48;8.77;;;7.87;;
3601;SDS011;1815;50.950;6.920;2022-12-22T09:19:14;9.40;;;8.50;;
3601;SDS011;1815;50.950;6.920;2022-12-22T09:21:40;9.03;;;8.13;;
3601;SDS011;1815;50.950;6.920;2022-12-22T09:24:06;9.97;;;8.97;;
3601;SDS011;1815;50.950;6.920;2022-12-22T09:26:32;8.80;;;7.90;;
3601;SDS011;1815;50.950;6.920;2022-12-22T09:28:58;11.80;;;8.53;;
3601;SDS011;1815;50.950;6.920;2022-12-22T09:31:24;10.63;;;9.53;;
3601;SDS011;1815;50.950;6.920;2022-12-22T09:33:51;10.80;;;9.47;;
3601;SDS011;1815;50.950;6.920;2022-12-22T09:36:19;10.67;;;9.40;;
3601;SDS011;1815;50.950;6.920;2022-12-22T09:38:57;9.83;;;8.83;;
3601;SDS011;1815;50.950;6.920;2022-12-22T09:41:33;10.50;;;9.40;;
3601;SDS011;1815;50.950;6.920;2022-12-22T09:44:09;9.40;;;8.23;;
3601;SDS011;1815;50.950;6.920;2022-12-22T09:46:37;9.60;;;8.70;;
3601;SDS011;1815;50.950;6.920;2022-12-22T09:49:04;8.90;;;8.00;;
3601;SDS011;1815;50.950;6.920;2022-12-22T09:51:31;11.30;;;10.10;;
3601;SDS011;1815;50.950;6.920;2022-12-22T09:54:04;11.40;;;9.47;;
3601;SDS011;1815;50.950;6.920;2022-12-22T09:56:29;9.60;;;8.60;;
3601;SDS011;1815;50.950;6.920;2022-12-22T09:58:56;11.57;;;10.17;;
3601;SDS011;1815;50.950;6.920;2022-12-22T10:04:27;9.70;;;8.80;;
3601;SDS011;1815;50.950;6.920;2022-12-22T10:07:15;10.45;;;9.43;;
3601;SDS011;1815;50.950;6.920;2022-12-22T10:12:49;10.93;;;9.70;;
3601;SDS011;1815;50.950;6.920;2022-12-22T10:15:16;9.90;;;8.87;;
3601;SDS011;1815;50.950;6.920;2022-12-22T10:17:41;12.43;;;10.30;;
3601;SDS011;1815;50.950;6.920;2022-12-22T10:22:50;12.37;;;10.90;;
3601;SDS011;1815;50.950;6.920;2022-12-22T10:25:25;18.13;;;12.30;;
3601;SDS011;1815;50.950;6.920;2022-12-22T10:27:57;17.77;;;13.03;;
3601;SDS011;1815;50.950;6.920;2022-12-22T10:30:25;16.60;;;12.47;;
3601;SDS011;1815;50.950;6.920;2022-12-22T10:33:01;13.70;;;11.30;;
3601;SDS011;1815;50.950;6.920;2022-12-22T10:38:19;13.93;;;10.50;;
3601;SDS011;1815;50.950;6.920;2022-12-22T10:41:29;12.82;;;11.40;;
3601;SDS011;1815;50.950;6.920;2022-12-22T10:46:57;14.40;;;12.50;;
3601;SDS011;1815;50.950;6.920;2022-12-22T10:52:11;12.73;;;10.63;;
3601;SDS011;1815;50.950;6.920;2022-12-22T10:54:40;13.02;;;10.95;;
3601;SDS011;1815;50.950;6.920;2022-12-22T10:59:59;12.70;;;11.20;;
3601;SDS011;1815;50.950;6.920;2022-12-22T11:02:45;12.93;;;10.80;;
3601;SDS011;1815;50.950;6.920;2022-12-22T11:05:16;13.13;;;10.83;;
3601;SDS011;1815;50.950;6.920;2022-12-22T11:07:44;15.83;;;11.13;;
3601;SDS011;1815;50.950;6.920;2022-12-22T11:18:17;14.33;;;11.70;;
3601;SDS011;1815;50.950;6.920;2022-12-22T11:20:59;19.70;;;11.77;;
3601;SDS011;1815;50.950;6.920;2022-12-22T11:24:00;10.50;;;9.40;;
3601;SDS011;1815;50.950;6.920;2022-12-22T11:37:49;14.50;;;10.00;;
3601;SDS011;1815;50.950;6.920;2022-12-22T11:40:40;11.20;;;9.20;;
3601;SDS011;1815;50.950;6.920;2022-12-22T11:57:30;13.50;;;11.07;;
3601;SDS011;1815;50.950;6.920;2022-12-22T12:00:15;13.93;;;10.27;;
3601;SDS011;1815;50.950;6.920;2022-12-22T12:08:38;16.10;;;10.77;;
3601;SDS011;1815;50.950;6.920;2022-12-22T12:11:20;15.87;;;11.07;;
3601;SDS011;1815;50.950;6.920;2022-12-22T12:16:59;11.60;;;9.20;;
3601;SDS011;1815;50.950;6.920;2022-12-22T12:25:26;21.83;;;15.07;;
3601;SDS011;1815;50.950;6.920;2022-12-22T12:30:57;19.77;;;11.33;;
3601;SDS011;1815;50.950;6.920;2022-12-22T12:33:30;13.23;;;10.50;;
3601;SDS011;1815;50.950;6.920;2022-12-22T12:39:03;11.77;;;8.90;;
3601;SDS011;1815;50.950;6.920;2022-12-22T12:41:42;12.77;;;8.03;;
3601;SDS011;1815;50.950;6.920;2022-12-22T12:44:10;9.70;;;6.97;;
3601;SDS011;1815;50.950;6.920;2022-12-22T12:51:59;9.00;;;7.27;;
3601;SDS011;1815;50.950;6.920;2022-12-22T13:00:39;8.70;;;6.15;;
3601;SDS011;1815;50.950;6.920;2022-12-22T13:03:10;8.10;;;7.00;;
3601;SDS011;1815;50.950;6.920;2022-12-22T13:05:58;10.50;;;6.70;;
3601;SDS011;1815;50.950;6.920;2022-12-22T13:08:27;9.80;;;6.53;;
3601;SDS011;1815;50.950;6.920;2022-12-22T13:20:56;8.68;;;6.82;;
3601;SDS011;1815;50.950;6.920;2022-12-22T13:23:23;10.30;;;5.80;;
3601;SDS011;1815;50.950;6.920;2022-12-22T13:25:57;6.90;;;5.60;;
3601;SDS011;1815;50.950;6.920;2022-12-22T13:28:26;8.13;;;6.17;;
3601;SDS011;1815;50.950;6.920;2022-12-22T13:31:00;8.77;;;7.00;;
3601;SDS011;1815;50.950;6.920;2022-12-22T13:33:31;7.53;;;5.90;;
3601;SDS011;1815;50.950;6.920;2022-12-22T13:36:02;6.10;;;4.93;;
3601;SDS011;1815;50.950;6.920;2022-12-22T13:38:30;5.47;;;4.27;;
3601;SDS011;1815;50.950;6.920;2022-12-22T13:40:57;4.90;;;3.80;;
3601;SDS011;1815;50.950;6.920;2022-12-22T13:43:27;4.67;;;3.80;;
3601;SDS011;1815;50.950;6.920;2022-12-22T13:45:57;4.40;;;4.00;;
3601;SDS011;1815;50.950;6.920;2022-12-22T13:48:28;4.23;;;3.03;;
3601;SDS011;1815;50.950;6.920;2022-12-22T13:51:07;4.17;;;3.70;;
3601;SDS011;1815;50.950;6.920;2022-12-22T13:53:39;4.53;;;3.77;;
3601;SDS011;1815;50.950;6.920;2022-12-22T13:56:25;4.83;;;3.23;;
3601;SDS011;1815;50.950;6.920;2022-12-22T13:59:03;4.67;;;3.70;;
3601;SDS011;1815;50.950;6.920;2022-12-22T14:01:47;5.13;;;4.50;;
3601;SDS011;1815;50.950;6.920;2022-12-22T14:04:21;6.30;;;5.20;;
3601;SDS011;1815;50.950;6.920;2022-12-22T14:06:46;5.70;;;5.00;;
3601;SDS011;1815;50.950;6.920;2022-12-22T14:09:17;5.73;;;5.00;;
3601;SDS011;1815;50.950;6.920;2022-12-22T14:11:54;6.77;;;4.23;;
3601;SDS011;1815;50.950;6.920;2022-12-22T14:14:28;5.07;;;4.10;;
3601;SDS011;1815;50.950;6.920;2022-12-22T14:17:01;6.33;;;4.63;;
3601;SDS011;1815;50.950;6.920;2022-12-22T14:19:32;6.37;;;4.43;;
3601;SDS011;1815;50.950;6.920;2022-12-22T14:22:07;6.40;;;5.30;;
3601;SDS011;1815;50.950;6.920;2022-12-22T14:24:41;6.00;;;4.63;;
3601;SDS011;1815;50.950;6.920;2022-12-22T14:30:21;5.33;;;4.70;;
3601;SDS011;1815;50.950;6.920;2022-12-22T14:32:51;4.40;;;3.70;;
3601;SDS011;1815;50.950;6.920;2022-12-22T14:37:51;6.87;;;3.80;;
3601;SDS011;1815;50.950;6.920;2022-12-22T14:40:35;5.80;;;3.57;;
3601;SDS011;1815;50.950;6.920;2022-12-22T14:43:13;4.93;;;3.40;;
3601;SDS011;1815;50.950;6.920;2022-12-22T14:45:46;4.30;;;3.27;;
3601;SDS011;1815;50.950;6.920;2022-12-22T14:48:21;4.93;;;2.53;;
3601;SDS011;1815;50.950;6.920;2022-12-22T14:50:51;4.50;;;2.50;;
3601;SDS011;1815;50.950;6.920;2022-12-22T14:53:25;3.83;;;2.63;;
3601;SDS011;1815;50.950;6.920;2022-12-22T14:56:03;3.77;;;2.20;;
3601;SDS011;1815;50.950;6.920;2022-12-22T14:58:35;3.40;;;2.30;;
3601;SDS011;1815;50.950;6.920;2022-12-22T15:01:15;3.20;;;1.93;;
3601;SDS011;1815;50.950;6.920;2022-12-22T15:03:59;2.87;;;2.07;;
3601;SDS011;1815;50.950;6.920;2022-12-22T15:06:32;4.13;;;2.37;;
3601;SDS011;1815;50.950;6.920;2022-12-22T15:11:31;2.97;;;2.20;;
3601;SDS011;1815;50.950;6.920;2022-12-22T15:13:58;3.17;;;2.17;;
3601;SDS011;1815;50.950;6.920;2022-12-22T15:16:26;2.80;;;2.17;;
3601;SDS011;1815;50.950;6.920;2022-12-22T15:18:52;5.30;;;4.80;;
3601;SDS011;1815;50.950;6.920;2022-12-22T15:21:19;6.60;;;3.77;;
3601;SDS011;1815;50.950;6.920;2022-12-22T15:23:46;4.70;;;3.80;;
3601;SDS011;1815;50.950;6.920;2022-12-22T15:26:11;4.10;;;3.50;;
3601;SDS011;1815;50.950;6.920;2022-12-22T15:28:37;4.80;;;3.90;;
3601;SDS011;1815;50.950;6.920;2022-12-22T15:31:03;4.73;;;3.60;;
3601;SDS011;1815;50.950;6.920;2022-12-22T15:33:36;6.23;;;4.37;;
3601;SDS011;1815;50.950;6.920;2022-12-22T15:36:02;7.07;;;5.13;;
3601;SDS011;1815;50.950;6.920;2022-12-22T15:38:29;7.43;;;5.15;;
3601;SDS011;1815;50.950;6.920;2022-12-22T15:40:55;8.23;;;5.73;;
3601;SDS011;1815;50.950;6.920;2022-12-22T15:43:20;6.93;;;6.00;;
3601;SDS011;1815;50.950;6.920;2022-12-22T15:45:46;6.37;;;5.53;;
3601;SDS011;1815;50.950;6.920;2022-12-22T15:48:13;7.32;;;6.63;;
3601;SDS011;1815;50.950;6.920;2022-12-22T15:50:47;8.43;;;6.13;;
3601;SDS011;1815;50.950;6.920;2022-12-22T15:53:17;7.37;;;6.50;;
3601;SDS011;1815;50.950;6.920;2022-12-22T15:55:45;6.70;;;5.33;;
3601;SDS011;1815;50.950;6.920;2022-12-22T15:58:18;5.80;;;4.97;;
3601;SDS011;1815;50.950;6.920;2022-12-22T16:00:45;8.00;;;4.77;;
3601;SDS011;1815;50.950;6.920;2022-12-22T16:03:11;9.70;;;7.70;;
3601;SDS011;1815;50.950;6.920;2022-12-22T16:05:37;10.10;;;7.30;;
3601;SDS011;1815;50.950;6.920;2022-12-22T16:08:08;4.93;;;4.33;;
3601;SDS011;1815;50.950;6.920;2022-12-22T16:10:38;5.30;;;4.60;;
3601;SDS011;1815;50.950;6.920;2022-12-22T16:13:04;5.70;;;3.57;;
3601;SDS011;1815;50.950;6.920;2022-12-22T16:15:34;3.00;;;2.70;;
3601;SDS011;1815;50.950;6.920;2022-12-22T16:18:00;3.10;;;2.50;;
3601;SDS011;1815;50.950;6.920;2022-12-22T16:20:27;3.50;;;2.50;;
3601;SDS011;1815;50.950;6.920;2022-12-22T16:22:54;2.47;;;2.13;;
3601;SDS011;1815;50.950;6.920;2022-12-22T16:25:22;4.27;;;2.20;;
3601;SDS011;1815;50.950;6.920;2022-12-22T16:27:52;2.93;;;1.73;;
3601;SDS011;1815;50.950;6.920;2022-12-22T16:30:20;3.17;;;1.50;;
3601;SDS011;1815;50.950;6.920;2022-12-22T16:32:47;2.70;;;1.77;;
3601;SDS011;1815;50.950;6.920;2022-12-22T16:35:17;3.50;;;1.70;;
3601;SDS011;1815;50.950;6.920;2022-12-22T16:37:45;2.40;;;1.30;;
3601;SDS011;1815;50.950;6.920;2022-12-22T16:40:13;2.20;;;1.50;;
3601;SDS011;1815;50.950;6.920;2022-12-22T16:42:40;2.90;;;1.63;;
3601;SDS011;1815;50.950;6.920;2022-12-22T16:45:26;1.83;;;1.10;;
3601;SDS011;1815;50.950;6.920;2022-12-22T16:47:53;4.23;;;1.20;;
3601;SDS011;1815;50.950;6.920;2022-12-22T16:50:24;1.70;;;0.90;;
3601;SDS011;1815;50.950;6.920;2022-12-22T16:53:00;2.67;;;1.10;;
3601;SDS011;1815;50.950;6.920;2022-12-22T16:55:28;2.35;;;1.20;;
3601;SDS011;1815;50.950;6.920;2022-12-22T16:57:54;2.63;;;1.53;;
3601;SDS011;1815;50.950;6.920;2022-12-22T17:00:21;2.00;;;1.13;;
3601;SDS011;1815;50.950;6.920;2022-12-22T17:02:54;1.88;;;1.20;;
3601;SDS011;1815;50.950;6.920;2022-12-22T17:05:26;2.37;;;1.23;;
3601;SDS011;1815;50.950;6.920;2022-12-22T17:07:54;2.97;;;1.10;;
3601;SDS011;1815;50.950;6.920;2022-12-22T17:10:22;3.30;;;1.40;;
3601;SDS011;1815;50.950;6.920;2022-12-22T17:12:48;1.60;;;1.00;;
3601;SDS011;1815;50.950;6.920;2022-12-22T17:15:18;1.67;;;1.20;;
3601;SDS011;1815;50.950;6.920;2022-12-22T17:17:46;1.60;;;1.10;;
3601;SDS011;1815;50.950;6.920;2022-12-22T17:20:16;1.57;;;0.90;;
3601;SDS011;1815;50.950;6.920;2022-12-22T17:22:44;2.35;;;0.90;;
3601;SDS011;1815;50.950;6.920;2022-12-22T17:25:16;2.45;;;0.95;;
3601;SDS011;1815;50.950;6.920;2022-12-22T17:27:45;2.10;;;1.48;;
3601;SDS011;1815;50.950;6.920;2022-12-22T17:30:16;2.23;;;1.00;;
3601;SDS011;1815;50.950;6.920;2022-12-22T17:32:43;2.07;;;1.10;;
3601;SDS011;1815;50.950;6.920;2022-12-22T17:35:15;3.00;;;1.30;;
3601;SDS011;1815;50.950;6.920;2022-12-22T17:37:43;2.67;;;1.20;;
3601;SDS011;1815;50.950;6.920;2022-12-22T17:40:28;1.73;;;1.05;;
3601;SDS011;1815;50.950;6.920;2022-12-22T17:42:58;1.80;;;0.90;;
3601;SDS011;1815;50.950;6.920;2022-12-22T17:45:24;5.43;;;1.00;;
3601;SDS011;1815;50.950;6.920;2022-12-22T17:47:49;2.40;;;0.80;;
3601;SDS011;1815;50.950;6.920;2022-12-22T17:50:16;2.20;;;1.00;;
3601;SDS011;1815;50.950;6.920;2022-12-22T17:52:43;2.30;;;0.90;;
3601;SDS011;1815;50.950;6.920;2022-12-22T17:57:51;7.95;;;3.70;;
3601;SDS011;1815;50.950;6.920;2022-12-22T18:00:18;3.95;;;2.90;;
3601;SDS011;1815;50.950;6.920;2022-12-22T18:02:46;5.90;;;2.20;;
3601;SDS011;1815;50.950;6.920;2022-12-22T18:05:13;4.15;;;1.17;;